sensor_id;sensor_type;location;lat;lon;timestamp;temperature;humidity
14170;DHT22;63889;50.596;8.690;2024-03-02T00:00:19;6.60;99.90
14170;DHT22;63889;50.596;8.690;2024-03-02T00:02:48;6.70;99.90
14170;DHT22;63889;50.596;8.690;2024-03-02T00:05:16;6.90;99.90
14170;DHT22;63889;50.596;8.690;2024-03-02T00:07:43;7.20;99.90
14170;DHT22;63889;50.596;8.690;2024-03-02T00:10:11;7.10;99.90
14170;DHT22;63889;50.596;8.690;2024-03-02T00:12:43;7.00;99.90
14170;DHT22;63889;50.596;8.690;2024-03-02T00:17:53;6.90;99.90
14170;DHT22;63889;50.596;8.690;2024-03-02T00:20:22;6.90;99.90
14170;DHT22;63889;50.596;8.690;2024-03-02T00:23:04;6.80;99.90
14170;DHT22;63889;50.596;8.690;2024-03-02T00:25:54;6.60;99.90
14170;DHT22;63889;50.596;8.690;2024-03-02T00:28:58;6.50;99.90
14170;DHT22;63889;50.596;8.690;2024-03-02T00:31:25;6.50;99.90
14170;DHT22;63889;50.596;8.690;2024-03-02T00:33:58;6.40;99.90
14170;DHT22;63889;50.596;8.690;2024-03-02T00:37:06;6.30;99.90
14170;DHT22;63889;50.596;8.690;2024-03-02T00:39:32;6.20;99.90
14170;DHT22;63889;50.596;8.690;2024-03-02T00:42:03;6.10;99.90
14170;DHT22;63889;50.596;8.690;2024-03-02T00:44:37;6.10;99.90
14170;DHT22;63889;50.596;8.690;2024-03-02T00:47:07;6.00;99.90
14170;DHT22;63889;50.596;8.690;2024-03-02T00:49:36;6.00;99.90
14170;DHT22;63889;50.596;8.690;2024-03-02T00:52:12;6.10;99.90
14170;DHT22;63889;50.596;8.690;2024-03-02T00:54:44;6.10;99.90
14170;DHT22;63889;50.596;8.690;2024-03-02T00:57:11;6.20;99.90
14170;DHT22;63889;50.596;8.690;2024-03-02T00:59:37;6.20;99.90
14170;DHT22;63889;50.596;8.690;2024-03-02T01:02:03;6.20;99.90
14170;DHT22;63889;50.596;8.690;2024-03-02T01:04:29;6.20;99.90
14170;DHT22;63889;50.596;8.690;2024-03-02T01:06:55;6.20;99.90
14170;DHT22;63889;50.596;8.690;2024-03-02T01:09:21;6.20;99.90
14170;DHT22;63889;50.596;8.690;2024-03-02T01:11:47;6.10;99.90
14170;DHT22;63889;50.596;8.690;2024-03-02T01:14:12;6.10;99.90
14170;DHT22;63889;50.596;8.690;2024-03-02T01:16:38;6.10;99.90
14170;DHT22;63889;50.596;8.690;2024-03-02T01:19:05;6.00;99.90
14170;DHT22;63889;50.596;8.690;2024-03-02T01:21:30;6.00;99.90
14170;DHT22;63889;50.596;8.690;2024-03-02T01:23:56;5.90;99.90
14170;DHT22;63889;50.596;8.690;2024-03-02T01:26:21;5.80;99.90
14170;DHT22;63889;50.596;8.690;2024-03-02T01:28:47;5.80;99.90
14170;DHT22;63889;50.596;8.690;2024-03-02T01:31:12;5.80;99.90
14170;DHT22;63889;50.596;8.690;2024-03-02T01:33:38;5.80;99.90
14170;DHT22;63889;50.596;8.690;2024-03-02T01:36:04;5.70;99.90
14170;DHT22;63889;50.596;8.690;2024-03-02T01:38:30;5.60;99.90
14170;DHT22;63889;50.596;8.690;2024-03-02T01:40:56;5.60;99.90
14170;DHT22;63889;50.596;8.690;2024-03-02T01:43:26;5.80;99.90
14170;DHT22;63889;50.596;8.690;2024-03-02T01:45:51;5.90;99.90
14170;DHT22;63889;50.596;8.690;2024-03-02T01:48:17;5.90;99.90
14170;DHT22;63889;50.596;8.690;2024-03-02T01:50:42;5.90;99.90
14170;DHT22;63889;50.596;8.690;2024-03-02T01:53:08;6.00;99.90
14170;DHT22;63889;50.596;8.690;2024-03-02T01:55:35;5.70;99.90
14170;DHT22;63889;50.596;8.690;2024-03-02T01:58:01;5.50;99.90
14170;DHT22;63889;50.596;8.690;2024-03-02T02:00:26;5.30;99.90
14170;DHT22;63889;50.596;8.690;2024-03-02T02:02:52;5.30;99.90
14170;DHT22;63889;50.596;8.690;2024-03-02T02:05:18;5.40;99.90
14170;DHT22;63889;50.596;8.690;2024-03-02T02:07:44;5.50;99.90
14170;DHT22;63889;50.596;8.690;2024-03-02T02:10:12;5.60;99.90
14170;DHT22;63889;50.596;8.690;2024-03-02T02:12:38;5.80;99.90
14170;DHT22;63889;50.596;8.690;2024-03-02T02:15:24;5.80;99.90
14170;DHT22;63889;50.596;8.690;2024-03-02T02:17:49;5.80;99.90
14170;DHT22;63889;50.596;8.690;2024-03-02T02:20:15;5.80;99.90
14170;DHT22;63889;50.596;8.690;2024-03-02T02:25:23;5.70;99.90
14170;DHT22;63889;50.596;8.690;2024-03-02T02:27:49;5.60;99.90
14170;DHT22;63889;50.596;8.690;2024-03-02T02:30:22;5.60;99.90
14170;DHT22;63889;50.596;8.690;2024-03-02T02:32:48;5.50;99.90
14170;DHT22;63889;50.596;8.690;2024-03-02T02:35:14;5.40;99.90
14170;DHT22;63889;50.596;8.690;2024-03-02T02:37:39;5.50;99.90
14170;DHT22;63889;50.596;8.690;2024-03-02T02:40:06;5.50;99.90
14170;DHT22;63889;50.596;8.690;2024-03-02T02:42:31;5.40;99.90
14170;DHT22;63889;50.596;8.690;2024-03-02T02:44:57;5.30;99.90
14170;DHT22;63889;50.596;8.690;2024-03-02T02:47:22;5.30;99.90
14170;DHT22;63889;50.596;8.690;2024-03-02T02:49:48;5.30;99.90
14170;DHT22;63889;50.596;8.690;2024-03-02T02:52:13;5.30;99.90
14170;DHT22;63889;50.596;8.690;2024-03-02T02:54:39;5.40;99.90
14170;DHT22;63889;50.596;8.690;2024-03-02T02:57:04;5.40;99.90
14170;DHT22;63889;50.596;8.690;2024-03-02T02:59:30;5.40;99.90
14170;DHT22;63889;50.596;8.690;2024-03-02T03:01:55;5.40;99.90
14170;DHT22;63889;50.596;8.690;2024-03-02T03:04:21;5.30;99.90
14170;DHT22;63889;50.596;8.690;2024-03-02T03:06:46;5.30;99.90
14170;DHT22;63889;50.596;8.690;2024-03-02T03:09:12;5.20;99.90
14170;DHT22;63889;50.596;8.690;2024-03-02T03:11:37;5.20;99.90
14170;DHT22;63889;50.596;8.690;2024-03-02T03:14:03;5.10;99.90
14170;DHT22;63889;50.596;8.690;2024-03-02T03:16:30;5.10;99.90
14170;DHT22;63889;50.596;8.690;2024-03-02T03:18:56;5.10;99.90
14170;DHT22;63889;50.596;8.690;2024-03-02T03:21:21;5.10;99.90
14170;DHT22;63889;50.596;8.690;2024-03-02T03:23:47;5.20;99.90
14170;DHT22;63889;50.596;8.690;2024-03-02T03:26:12;5.30;99.90
14170;DHT22;63889;50.596;8.690;2024-03-02T03:28:38;5.30;99.90
14170;DHT22;63889;50.596;8.690;2024-03-02T03:31:04;5.40;99.90
14170;DHT22;63889;50.596;8.690;2024-03-02T03:33:29;5.50;99.90
14170;DHT22;63889;50.596;8.690;2024-03-02T03:35:55;5.50;99.90
14170;DHT22;63889;50.596;8.690;2024-03-02T03:38:20;5.50;99.90
14170;DHT22;63889;50.596;8.690;2024-03-02T03:40:46;5.50;99.90
14170;DHT22;63889;50.596;8.690;2024-03-02T03:43:12;5.70;99.90
14170;DHT22;63889;50.596;8.690;2024-03-02T03:45:38;5.70;99.90
14170;DHT22;63889;50.596;8.690;2024-03-02T03:48:04;5.90;99.90
14170;DHT22;63889;50.596;8.690;2024-03-02T03:50:29;6.00;99.90
14170;DHT22;63889;50.596;8.690;2024-03-02T03:52:55;6.00;99.90
14170;DHT22;63889;50.596;8.690;2024-03-02T03:55:20;5.90;99.90
14170;DHT22;63889;50.596;8.690;2024-03-02T03:57:46;5.90;99.90
14170;DHT22;63889;50.596;8.690;2024-03-02T04:00:12;5.80;99.90
14170;DHT22;63889;50.596;8.690;2024-03-02T04:02:38;5.60;99.90
14170;DHT22;63889;50.596;8.690;2024-03-02T04:05:04;5.60;99.90
14170;DHT22;63889;50.596;8.690;2024-03-02T04:07:35;5.80;99.90
14170;DHT22;63889;50.596;8.690;2024-03-02T04:10:09;5.80;99.90
14170;DHT22;63889;50.596;8.690;2024-03-02T04:12:38;5.90;99.90
14170;DHT22;63889;50.596;8.690;2024-03-02T04:15:07;6.00;99.90
14170;DHT22;63889;50.596;8.690;2024-03-02T04:17:33;6.20;99.90
14170;DHT22;63889;50.596;8.690;2024-03-02T04:19:59;6.20;99.90
14170;DHT22;63889;50.596;8.690;2024-03-02T04:22:27;6.00;99.90
14170;DHT22;63889;50.596;8.690;2024-03-02T04:24:52;5.60;99.90
14170;DHT22;63889;50.596;8.690;2024-03-02T04:27:19;5.40;99.90
14170;DHT22;63889;50.596;8.690;2024-03-02T04:29:45;5.30;99.90
14170;DHT22;63889;50.596;8.690;2024-03-02T04:32:10;5.20;99.90
14170;DHT22;63889;50.596;8.690;2024-03-02T04:34:36;5.20;99.90
14170;DHT22;63889;50.596;8.690;2024-03-02T04:37:01;5.30;99.90
14170;DHT22;63889;50.596;8.690;2024-03-02T04:39:27;5.40;99.90
14170;DHT22;63889;50.596;8.690;2024-03-02T04:41:52;5.50;99.90
14170;DHT22;63889;50.596;8.690;2024-03-02T04:44:18;5.40;99.90
14170;DHT22;63889;50.596;8.690;2024-03-02T04:46:43;5.60;99.90
14170;DHT22;63889;50.596;8.690;2024-03-02T04:49:09;5.40;99.90
14170;DHT22;63889;50.596;8.690;2024-03-02T04:51:35;5.40;99.90
14170;DHT22;63889;50.596;8.690;2024-03-02T04:54:00;5.50;99.90
14170;DHT22;63889;50.596;8.690;2024-03-02T04:56:26;5.50;99.90
14170;DHT22;63889;50.596;8.690;2024-03-02T04:58:51;5.60;99.90
14170;DHT22;63889;50.596;8.690;2024-03-02T05:01:17;5.70;99.90
14170;DHT22;63889;50.596;8.690;2024-03-02T05:03:42;5.80;99.90
14170;DHT22;63889;50.596;8.690;2024-03-02T05:06:08;5.80;99.90
14170;DHT22;63889;50.596;8.690;2024-03-02T05:08:34;5.80;99.90
14170;DHT22;63889;50.596;8.690;2024-03-02T05:10:59;5.90;99.90
14170;DHT22;63889;50.596;8.690;2024-03-02T05:13:45;5.90;99.90
14170;DHT22;63889;50.596;8.690;2024-03-02T05:16:10;5.80;99.90
14170;DHT22;63889;50.596;8.690;2024-03-02T05:18:37;5.80;99.90
14170;DHT22;63889;50.596;8.690;2024-03-02T05:21:03;5.70;99.90
14170;DHT22;63889;50.596;8.690;2024-03-02T05:23:29;5.60;99.90
14170;DHT22;63889;50.596;8.690;2024-03-02T05:25:54;5.50;99.90
14170;DHT22;63889;50.596;8.690;2024-03-02T05:28:20;5.40;99.90
14170;DHT22;63889;50.596;8.690;2024-03-02T05:30:45;5.50;99.90
14170;DHT22;63889;50.596;8.690;2024-03-02T05:33:11;5.60;99.90
14170;DHT22;63889;50.596;8.690;2024-03-02T05:35:37;5.70;99.90
14170;DHT22;63889;50.596;8.690;2024-03-02T05:38:02;5.80;99.90
14170;DHT22;63889;50.596;8.690;2024-03-02T05:40:28;5.90;99.90
14170;DHT22;63889;50.596;8.690;2024-03-02T05:42:53;5.90;99.90
14170;DHT22;63889;50.596;8.690;2024-03-02T05:45:19;5.80;99.90
14170;DHT22;63889;50.596;8.690;2024-03-02T05:47:44;5.70;99.90
14170;DHT22;63889;50.596;8.690;2024-03-02T05:50:10;5.30;99.90
14170;DHT22;63889;50.596;8.690;2024-03-02T05:52:35;5.10;99.90
14170;DHT22;63889;50.596;8.690;2024-03-02T05:55:01;5.00;99.90
14170;DHT22;63889;50.596;8.690;2024-03-02T05:57:26;5.10;99.90
14170;DHT22;63889;50.596;8.690;2024-03-02T06:00:15;5.00;99.90
14170;DHT22;63889;50.596;8.690;2024-03-02T06:02:42;5.00;99.90
14170;DHT22;63889;50.596;8.690;2024-03-02T06:05:07;5.10;99.90
14170;DHT22;63889;50.596;8.690;2024-03-02T06:07:34;5.20;99.90
14170;DHT22;63889;50.596;8.690;2024-03-02T06:09:59;5.30;99.90
14170;DHT22;63889;50.596;8.690;2024-03-02T06:12:32;5.40;99.90
14170;DHT22;63889;50.596;8.690;2024-03-02T06:14:58;5.40;99.90
14170;DHT22;63889;50.596;8.690;2024-03-02T06:17:24;5.30;99.90
14170;DHT22;63889;50.596;8.690;2024-03-02T06:19:49;5.30;99.90
14170;DHT22;63889;50.596;8.690;2024-03-02T06:22:15;5.30;99.90
14170;DHT22;63889;50.596;8.690;2024-03-02T06:24:40;5.30;99.90
14170;DHT22;63889;50.596;8.690;2024-03-02T06:27:06;5.40;99.90
14170;DHT22;63889;50.596;8.690;2024-03-02T06:29:34;5.50;99.90
14170;DHT22;63889;50.596;8.690;2024-03-02T06:32:00;5.60;99.90
14170;DHT22;63889;50.596;8.690;2024-03-02T06:34:25;5.60;99.90
14170;DHT22;63889;50.596;8.690;2024-03-02T06:36:51;5.50;99.90
14170;DHT22;63889;50.596;8.690;2024-03-02T06:39:16;5.40;99.90
14170;DHT22;63889;50.596;8.690;2024-03-02T06:41:42;5.20;99.90
14170;DHT22;63889;50.596;8.690;2024-03-02T06:44:12;5.20;99.90
14170;DHT22;63889;50.596;8.690;2024-03-02T06:46:38;5.20;99.90
14170;DHT22;63889;50.596;8.690;2024-03-02T06:49:04;5.30;99.90
14170;DHT22;63889;50.596;8.690;2024-03-02T06:51:30;5.30;99.90
14170;DHT22;63889;50.596;8.690;2024-03-02T06:53:56;5.40;99.90
14170;DHT22;63889;50.596;8.690;2024-03-02T06:56:21;5.40;99.90
14170;DHT22;63889;50.596;8.690;2024-03-02T06:58:47;5.40;99.90
14170;DHT22;63889;50.596;8.690;2024-03-02T07:01:12;5.20;99.90
14170;DHT22;63889;50.596;8.690;2024-03-02T07:03:38;5.20;99.90
14170;DHT22;63889;50.596;8.690;2024-03-02T07:06:05;5.40;99.90
14170;DHT22;63889;50.596;8.690;2024-03-02T07:08:33;5.60;99.90
14170;DHT22;63889;50.596;8.690;2024-03-02T07:10:59;5.70;99.90
14170;DHT22;63889;50.596;8.690;2024-03-02T07:13:24;5.90;99.90
14170;DHT22;63889;50.596;8.690;2024-03-02T07:15:50;6.00;99.90
14170;DHT22;63889;50.596;8.690;2024-03-02T07:18:34;5.40;99.90
14170;DHT22;63889;50.596;8.690;2024-03-02T07:21:05;5.20;99.90
14170;DHT22;63889;50.596;8.690;2024-03-02T07:23:30;5.30;99.90
14170;DHT22;63889;50.596;8.690;2024-03-02T07:25:57;5.30;99.90
14170;DHT22;63889;50.596;8.690;2024-03-02T07:28:23;5.20;99.90
14170;DHT22;63889;50.596;8.690;2024-03-02T07:31:02;5.20;99.90
14170;DHT22;63889;50.596;8.690;2024-03-02T07:33:28;5.40;99.90
14170;DHT22;63889;50.596;8.690;2024-03-02T07:35:54;5.50;99.90
14170;DHT22;63889;50.596;8.690;2024-03-02T07:38:21;5.60;99.90
14170;DHT22;63889;50.596;8.690;2024-03-02T07:40:48;5.60;99.90
14170;DHT22;63889;50.596;8.690;2024-03-02T07:43:19;5.60;99.90
14170;DHT22;63889;50.596;8.690;2024-03-02T07:45:45;5.60;99.90
14170;DHT22;63889;50.596;8.690;2024-03-02T07:48:11;5.60;99.90
14170;DHT22;63889;50.596;8.690;2024-03-02T07:50:36;5.60;99.90
14170;DHT22;63889;50.596;8.690;2024-03-02T07:53:03;5.60;99.90
14170;DHT22;63889;50.596;8.690;2024-03-02T07:55:29;5.80;99.90
14170;DHT22;63889;50.596;8.690;2024-03-02T07:57:56;5.80;99.90
14170;DHT22;63889;50.596;8.690;2024-03-02T08:00:22;5.80;99.90
14170;DHT22;63889;50.596;8.690;2024-03-02T08:02:48;5.80;99.90
14170;DHT22;63889;50.596;8.690;2024-03-02T08:05:13;6.00;99.90
14170;DHT22;63889;50.596;8.690;2024-03-02T08:07:39;6.10;99.90
14170;DHT22;63889;50.596;8.690;2024-03-02T08:10:05;6.30;99.90
14170;DHT22;63889;50.596;8.690;2024-03-02T08:12:31;6.60;99.90
14170;DHT22;63889;50.596;8.690;2024-03-02T08:14:56;6.90;99.90
14170;DHT22;63889;50.596;8.690;2024-03-02T08:17:22;7.10;99.90
14170;DHT22;63889;50.596;8.690;2024-03-02T08:19:47;7.20;99.90
14170;DHT22;63889;50.596;8.690;2024-03-02T08:22:15;7.30;99.90
14170;DHT22;63889;50.596;8.690;2024-03-02T08:24:41;7.60;99.90
14170;DHT22;63889;50.596;8.690;2024-03-02T08:27:07;7.90;99.90
14170;DHT22;63889;50.596;8.690;2024-03-02T08:29:32;8.20;99.90
14170;DHT22;63889;50.596;8.690;2024-03-02T08:31:58;8.20;99.90
14170;DHT22;63889;50.596;8.690;2024-03-02T08:34:23;8.40;99.90
14170;DHT22;63889;50.596;8.690;2024-03-02T08:36:49;8.40;99.90
14170;DHT22;63889;50.596;8.690;2024-03-02T08:39:15;8.40;99.90
14170;DHT22;63889;50.596;8.690;2024-03-02T08:41:47;8.50;99.90
14170;DHT22;63889;50.596;8.690;2024-03-02T08:44:13;8.30;99.90
14170;DHT22;63889;50.596;8.690;2024-03-02T08:46:40;8.30;99.90
14170;DHT22;63889;50.596;8.690;2024-03-02T08:49:06;8.50;99.90
14170;DHT22;63889;50.596;8.690;2024-03-02T08:51:31;8.40;99.90
14170;DHT22;63889;50.596;8.690;2024-03-02T08:53:57;8.70;99.90
14170;DHT22;63889;50.596;8.690;2024-03-02T08:56:24;8.80;99.90
14170;DHT22;63889;50.596;8.690;2024-03-02T08:58:50;8.80;99.90
14170;DHT22;63889;50.596;8.690;2024-03-02T09:01:18;8.90;99.90
14170;DHT22;63889;50.596;8.690;2024-03-02T09:03:45;9.00;99.90
14170;DHT22;63889;50.596;8.690;2024-03-02T09:06:11;9.10;99.90
14170;DHT22;63889;50.596;8.690;2024-03-02T09:08:36;8.90;99.90
14170;DHT22;63889;50.596;8.690;2024-03-02T09:11:03;8.90;99.90
14170;DHT22;63889;50.596;8.690;2024-03-02T09:13:29;9.00;99.90
14170;DHT22;63889;50.596;8.690;2024-03-02T09:15:55;9.20;99.90
14170;DHT22;63889;50.596;8.690;2024-03-02T09:18:20;9.30;99.90
14170;DHT22;63889;50.596;8.690;2024-03-02T09:20:46;9.40;99.90
14170;DHT22;63889;50.596;8.690;2024-03-02T09:23:11;9.40;99.90
14170;DHT22;63889;50.596;8.690;2024-03-02T09:25:37;9.20;99.90
14170;DHT22;63889;50.596;8.690;2024-03-02T09:28:03;9.40;99.90
14170;DHT22;63889;50.596;8.690;2024-03-02T09:30:29;9.40;99.90
14170;DHT22;63889;50.596;8.690;2024-03-02T09:32:54;9.40;99.90
14170;DHT22;63889;50.596;8.690;2024-03-02T09:35:20;9.50;99.90
14170;DHT22;63889;50.596;8.690;2024-03-02T09:37:45;9.50;99.90
14170;DHT22;63889;50.596;8.690;2024-03-02T09:40:12;9.40;99.90
14170;DHT22;63889;50.596;8.690;2024-03-02T09:42:38;9.50;99.90
14170;DHT22;63889;50.596;8.690;2024-03-02T09:45:05;9.70;99.90
14170;DHT22;63889;50.596;8.690;2024-03-02T09:47:31;9.80;99.90
14170;DHT22;63889;50.596;8.690;2024-03-02T09:49:57;9.80;99.90
14170;DHT22;63889;50.596;8.690;2024-03-02T09:52:23;9.80;99.90
14170;DHT22;63889;50.596;8.690;2024-03-02T09:54:49;9.70;99.90
14170;DHT22;63889;50.596;8.690;2024-03-02T09:57:15;9.80;99.90
14170;DHT22;63889;50.596;8.690;2024-03-02T09:59:40;9.90;99.90
14170;DHT22;63889;50.596;8.690;2024-03-02T10:02:06;10.10;99.90
14170;DHT22;63889;50.596;8.690;2024-03-02T10:04:32;10.30;99.90
14170;DHT22;63889;50.596;8.690;2024-03-02T10:07:13;10.30;99.90
14170;DHT22;63889;50.596;8.690;2024-03-02T10:09:40;10.40;99.90
14170;DHT22;63889;50.596;8.690;2024-03-02T10:12:07;10.60;99.90
14170;DHT22;63889;50.596;8.690;2024-03-02T10:14:32;10.60;99.90
14170;DHT22;63889;50.596;8.690;2024-03-02T10:17:06;10.80;99.90
14170;DHT22;63889;50.596;8.690;2024-03-02T10:19:33;10.80;99.90
14170;DHT22;63889;50.596;8.690;2024-03-02T10:22:01;10.90;99.90
14170;DHT22;63889;50.596;8.690;2024-03-02T10:24:28;10.90;99.90
14170;DHT22;63889;50.596;8.690;2024-03-02T10:26:59;11.10;99.90
14170;DHT22;63889;50.596;8.690;2024-03-02T10:29:25;11.00;99.90
14170;DHT22;63889;50.596;8.690;2024-03-02T10:31:54;11.00;99.90
14170;DHT22;63889;50.596;8.690;2024-03-02T10:34:19;11.10;99.90
14170;DHT22;63889;50.596;8.690;2024-03-02T10:36:47;11.50;99.90
14170;DHT22;63889;50.596;8.690;2024-03-02T10:39:15;11.60;99.90
14170;DHT22;63889;50.596;8.690;2024-03-02T10:41:41;11.20;99.90
14170;DHT22;63889;50.596;8.690;2024-03-02T10:44:08;11.30;99.90
14170;DHT22;63889;50.596;8.690;2024-03-02T10:46:36;11.50;99.90
14170;DHT22;63889;50.596;8.690;2024-03-02T10:49:03;11.90;99.90
14170;DHT22;63889;50.596;8.690;2024-03-02T10:51:31;12.00;99.90
14170;DHT22;63889;50.596;8.690;2024-03-02T10:53:58;12.10;99.90
14170;DHT22;63889;50.596;8.690;2024-03-02T10:56:34;12.40;99.90
14170;DHT22;63889;50.596;8.690;2024-03-02T11:01:32;12.30;99.90
14170;DHT22;63889;50.596;8.690;2024-03-02T11:03:59;12.00;99.90
14170;DHT22;63889;50.596;8.690;2024-03-02T11:06:28;11.70;99.90
14170;DHT22;63889;50.596;8.690;2024-03-02T11:08:57;11.40;99.90
14170;DHT22;63889;50.596;8.690;2024-03-02T11:11:29;11.30;99.90
14170;DHT22;63889;50.596;8.690;2024-03-02T11:13:57;11.20;99.90
14170;DHT22;63889;50.596;8.690;2024-03-02T11:18:52;11.60;99.90
14170;DHT22;63889;50.596;8.690;2024-03-02T11:21:18;12.20;99.90
14170;DHT22;63889;50.596;8.690;2024-03-02T11:23:43;12.40;99.90
14170;DHT22;63889;50.596;8.690;2024-03-02T11:26:22;12.60;99.90
14170;DHT22;63889;50.596;8.690;2024-03-02T11:28:48;12.70;99.90
14170;DHT22;63889;50.596;8.690;2024-03-02T11:31:14;12.90;99.90
14170;DHT22;63889;50.596;8.690;2024-03-02T11:33:39;13.10;99.90
14170;DHT22;63889;50.596;8.690;2024-03-02T11:36:09;13.30;99.90
14170;DHT22;63889;50.596;8.690;2024-03-02T11:38:35;13.40;99.90
14170;DHT22;63889;50.596;8.690;2024-03-02T11:41:02;14.00;99.90
14170;DHT22;63889;50.596;8.690;2024-03-02T11:43:29;14.50;99.90
14170;DHT22;63889;50.596;8.690;2024-03-02T11:46:03;14.50;99.90
14170;DHT22;63889;50.596;8.690;2024-03-02T11:48:32;14.80;99.90
14170;DHT22;63889;50.596;8.690;2024-03-02T11:50:59;14.60;99.90
14170;DHT22;63889;50.596;8.690;2024-03-02T11:53:27;14.30;99.90
14170;DHT22;63889;50.596;8.690;2024-03-02T11:55:55;13.80;99.90
14170;DHT22;63889;50.596;8.690;2024-03-02T11:58:21;13.50;99.90
14170;DHT22;63889;50.596;8.690;2024-03-02T12:00:55;13.60;99.90
14170;DHT22;63889;50.596;8.690;2024-03-02T12:03:25;14.10;99.90
14170;DHT22;63889;50.596;8.690;2024-03-02T12:05:53;14.20;99.90
14170;DHT22;63889;50.596;8.690;2024-03-02T12:08:19;14.20;99.90
14170;DHT22;63889;50.596;8.690;2024-03-02T12:10:57;14.00;99.90
14170;DHT22;63889;50.596;8.690;2024-03-02T12:13:22;13.60;99.90
14170;DHT22;63889;50.596;8.690;2024-03-02T12:15:53;13.40;99.90
14170;DHT22;63889;50.596;8.690;2024-03-02T12:18:20;13.40;99.90
14170;DHT22;63889;50.596;8.690;2024-03-02T12:20:45;13.40;99.90
14170;DHT22;63889;50.596;8.690;2024-03-02T12:23:11;13.80;99.90
14170;DHT22;63889;50.596;8.690;2024-03-02T12:25:37;13.70;99.90
14170;DHT22;63889;50.596;8.690;2024-03-02T12:28:03;13.50;99.90
14170;DHT22;63889;50.596;8.690;2024-03-02T12:30:35;13.50;99.90
14170;DHT22;63889;50.596;8.690;2024-03-02T12:33:00;13.50;99.90
14170;DHT22;63889;50.596;8.690;2024-03-02T12:35:26;13.30;99.90
14170;DHT22;63889;50.596;8.690;2024-03-02T12:37:53;13.20;99.90
14170;DHT22;63889;50.596;8.690;2024-03-02T12:40:20;13.30;99.90
14170;DHT22;63889;50.596;8.690;2024-03-02T12:42:48;13.30;99.90
14170;DHT22;63889;50.596;8.690;2024-03-02T12:45:14;13.30;99.90
14170;DHT22;63889;50.596;8.690;2024-03-02T12:47:41;13.20;99.90
14170;DHT22;63889;50.596;8.690;2024-03-02T12:50:07;13.30;99.90
14170;DHT22;63889;50.596;8.690;2024-03-02T12:52:33;13.60;99.90
14170;DHT22;63889;50.596;8.690;2024-03-02T12:55:00;13.70;99.90
14170;DHT22;63889;50.596;8.690;2024-03-02T12:57:28;13.90;99.90
14170;DHT22;63889;50.596;8.690;2024-03-02T13:00:05;14.10;99.90
14170;DHT22;63889;50.596;8.690;2024-03-02T13:02:40;14.50;99.90
14170;DHT22;63889;50.596;8.690;2024-03-02T13:05:07;15.00;99.90
14170;DHT22;63889;50.596;8.690;2024-03-02T13:07:37;14.90;99.90
14170;DHT22;63889;50.596;8.690;2024-03-02T13:10:02;14.80;99.90
14170;DHT22;63889;50.596;8.690;2024-03-02T13:12:30;14.80;99.90
14170;DHT22;63889;50.596;8.690;2024-03-02T13:14:58;14.90;99.90
14170;DHT22;63889;50.596;8.690;2024-03-02T13:17:24;14.90;99.90
14170;DHT22;63889;50.596;8.690;2024-03-02T13:19:53;15.80;99.90
14170;DHT22;63889;50.596;8.690;2024-03-02T13:22:20;15.90;99.90
14170;DHT22;63889;50.596;8.690;2024-03-02T13:24:47;15.80;99.90
14170;DHT22;63889;50.596;8.690;2024-03-02T13:27:12;15.60;99.90
14170;DHT22;63889;50.596;8.690;2024-03-02T13:29:38;15.50;99.90
14170;DHT22;63889;50.596;8.690;2024-03-02T13:32:04;15.70;99.90
14170;DHT22;63889;50.596;8.690;2024-03-02T13:34:30;15.90;99.90
14170;DHT22;63889;50.596;8.690;2024-03-02T13:36:55;15.60;99.90
14170;DHT22;63889;50.596;8.690;2024-03-02T13:39:21;15.70;99.90
14170;DHT22;63889;50.596;8.690;2024-03-02T13:41:46;15.60;99.90
14170;DHT22;63889;50.596;8.690;2024-03-02T13:44:18;15.50;99.90
14170;DHT22;63889;50.596;8.690;2024-03-02T13:46:44;15.50;99.90
14170;DHT22;63889;50.596;8.690;2024-03-02T13:49:11;15.70;99.90
14170;DHT22;63889;50.596;8.690;2024-03-02T13:51:37;15.70;99.90
14170;DHT22;63889;50.596;8.690;2024-03-02T13:54:03;15.60;99.90
14170;DHT22;63889;50.596;8.690;2024-03-02T13:56:29;15.50;99.90
14170;DHT22;63889;50.596;8.690;2024-03-02T13:58:55;15.80;99.90
14170;DHT22;63889;50.596;8.690;2024-03-02T14:01:20;16.20;99.90
14170;DHT22;63889;50.596;8.690;2024-03-02T14:03:46;16.30;99.90
14170;DHT22;63889;50.596;8.690;2024-03-02T14:06:12;16.90;99.90
14170;DHT22;63889;50.596;8.690;2024-03-02T14:08:38;17.10;99.90
14170;DHT22;63889;50.596;8.690;2024-03-02T14:11:03;16.70;99.90
14170;DHT22;63889;50.596;8.690;2024-03-02T14:13:29;17.00;99.90
14170;DHT22;63889;50.596;8.690;2024-03-02T14:15:55;17.70;99.90
14170;DHT22;63889;50.596;8.690;2024-03-02T14:18:20;17.60;99.90
14170;DHT22;63889;50.596;8.690;2024-03-02T14:20:46;17.60;99.90
14170;DHT22;63889;50.596;8.690;2024-03-02T14:23:20;17.70;99.90
14170;DHT22;63889;50.596;8.690;2024-03-02T14:25:46;17.30;99.90
14170;DHT22;63889;50.596;8.690;2024-03-02T14:28:11;16.90;99.90
14170;DHT22;63889;50.596;8.690;2024-03-02T14:30:37;17.20;99.90
14170;DHT22;63889;50.596;8.690;2024-03-02T14:33:03;17.10;99.90
14170;DHT22;63889;50.596;8.690;2024-03-02T14:35:29;17.10;99.90
14170;DHT22;63889;50.596;8.690;2024-03-02T14:37:55;17.10;99.90
14170;DHT22;63889;50.596;8.690;2024-03-02T14:40:23;17.10;99.90
14170;DHT22;63889;50.596;8.690;2024-03-02T14:42:50;16.80;99.90
14170;DHT22;63889;50.596;8.690;2024-03-02T14:45:16;16.50;99.90
14170;DHT22;63889;50.596;8.690;2024-03-02T14:47:42;16.70;99.90
14170;DHT22;63889;50.596;8.690;2024-03-02T14:50:08;17.10;99.90
14170;DHT22;63889;50.596;8.690;2024-03-02T14:52:35;17.10;99.90
14170;DHT22;63889;50.596;8.690;2024-03-02T14:55:01;17.60;99.90
14170;DHT22;63889;50.596;8.690;2024-03-02T14:57:28;18.10;99.90
14170;DHT22;63889;50.596;8.690;2024-03-02T14:59:53;18.70;99.90
14170;DHT22;63889;50.596;8.690;2024-03-02T15:02:20;18.30;99.90
14170;DHT22;63889;50.596;8.690;2024-03-02T15:04:45;17.80;99.90
14170;DHT22;63889;50.596;8.690;2024-03-02T15:07:13;18.10;99.90
14170;DHT22;63889;50.596;8.690;2024-03-02T15:09:39;17.80;99.90
14170;DHT22;63889;50.596;8.690;2024-03-02T15:12:05;17.70;99.90
14170;DHT22;63889;50.596;8.690;2024-03-02T15:14:31;18.10;99.90
14170;DHT22;63889;50.596;8.690;2024-03-02T15:16:57;17.60;99.90
14170;DHT22;63889;50.596;8.690;2024-03-02T15:19:23;16.80;99.90
14170;DHT22;63889;50.596;8.690;2024-03-02T15:21:48;16.70;99.90
14170;DHT22;63889;50.596;8.690;2024-03-02T15:24:14;16.40;99.90
14170;DHT22;63889;50.596;8.690;2024-03-02T15:26:39;16.10;99.90
14170;DHT22;63889;50.596;8.690;2024-03-02T15:29:05;15.80;99.90
14170;DHT22;63889;50.596;8.690;2024-03-02T15:31:31;15.70;99.90
14170;DHT22;63889;50.596;8.690;2024-03-02T15:33:56;16.00;99.90
14170;DHT22;63889;50.596;8.690;2024-03-02T15:36:23;15.90;99.90
14170;DHT22;63889;50.596;8.690;2024-03-02T15:38:49;15.90;99.90
14170;DHT22;63889;50.596;8.690;2024-03-02T15:41:15;15.60;99.90
14170;DHT22;63889;50.596;8.690;2024-03-02T15:43:40;15.40;99.90
14170;DHT22;63889;50.596;8.690;2024-03-02T15:46:08;15.20;99.90
14170;DHT22;63889;50.596;8.690;2024-03-02T15:48:34;15.00;99.90